Terminal Aerodrome Forecast
Issued by NWS

Home | Current Version | Previous Version | Text Only | Print | Product List | Glossary On
Versions: 1 2 3 4 5 6 7 8 9 10 11 12 13 14 15 16 17 18 19 20 21 22 23 24 25 26 27 28 29 30 31 32 33 34
611
FTUS45 KPSR 261001 AAA
TAFSDL
TAF AMD
KSDL 261001Z 2610/2706 03010KT P6SM VCTS OVC090CB
     FM261200 08005KT P6SM BKN100
     FM262000 21006KT P6SM SCT110 SCT250
     FM270200 VRB03KT P6SM SCT110 BKN250=

USA.gov is the U.S. government's official web portal to all federal, state and local government web resources and services.